sensor_id;sensor_type;location;lat;lon;timestamp;P1;durP1;ratioP1;P2;durP2;ratioP2
18146;SDS011;9199;48.832;9.182;2023-07-20T00:01:47;4.32;;;2.00;;
18146;SDS011;9199;48.832;9.182;2023-07-20T00:04:14;4.80;;;2.03;;
18146;SDS011;9199;48.832;9.182;2023-07-20T00:06:42;4.63;;;1.98;;
18146;SDS011;9199;48.832;9.182;2023-07-20T00:09:09;6.50;;;2.03;;
18146;SDS011;9199;48.832;9.182;2023-07-20T00:11:36;4.90;;;1.95;;
18146;SDS011;9199;48.832;9.182;2023-07-20T00:14:03;5.40;;;1.80;;
18146;SDS011;9199;48.832;9.182;2023-07-20T00:16:30;4.73;;;2.03;;
18146;SDS011;9199;48.832;9.182;2023-07-20T00:18:57;4.65;;;1.88;;
18146;SDS011;9199;48.832;9.182;2023-07-20T00:21:24;4.78;;;1.90;;
18146;SDS011;9199;48.832;9.182;2023-07-20T00:23:53;6.55;;;3.22;;
18146;SDS011;9199;48.832;9.182;2023-07-20T00:26:19;6.20;;;2.00;;
18146;SDS011;9199;48.832;9.182;2023-07-20T00:28:46;4.67;;;1.87;;
18146;SDS011;9199;48.832;9.182;2023-07-20T00:31:14;3.60;;;1.60;;
18146;SDS011;9199;48.832;9.182;2023-07-20T00:33:41;6.03;;;2.10;;
18146;SDS011;9199;48.832;9.182;2023-07-20T00:36:08;4.45;;;1.80;;
18146;SDS011;9199;48.832;9.182;2023-07-20T00:38:35;4.68;;;1.90;;
18146;SDS011;9199;48.832;9.182;2023-07-20T00:41:03;4.43;;;1.60;;
18146;SDS011;9199;48.832;9.182;2023-07-20T00:43:29;5.18;;;1.70;;
18146;SDS011;9199;48.832;9.182;2023-07-20T00:45:56;5.88;;;1.70;;
18146;SDS011;9199;48.832;9.182;2023-07-20T00:48:23;5.05;;;1.58;;
18146;SDS011;9199;48.832;9.182;2023-07-20T00:50:50;7.13;;;1.70;;
18146;SDS011;9199;48.832;9.182;2023-07-20T00:53:17;4.40;;;1.87;;
18146;SDS011;9199;48.832;9.182;2023-07-20T00:55:44;4.32;;;1.58;;
18146;SDS011;9199;48.832;9.182;2023-07-20T00:58:12;3.80;;;1.50;;
18146;SDS011;9199;48.832;9.182;2023-07-20T01:00:39;4.05;;;1.77;;
18146;SDS011;9199;48.832;9.182;2023-07-20T01:03:05;5.75;;;1.60;;
18146;SDS011;9199;48.832;9.182;2023-07-20T01:05:35;5.60;;;1.60;;
18146;SDS011;9199;48.832;9.182;2023-07-20T01:08:07;4.57;;;1.65;;
18146;SDS011;9199;48.832;9.182;2023-07-20T01:10:39;6.50;;;1.88;;
18146;SDS011;9199;48.832;9.182;2023-07-20T01:13:09;5.18;;;1.75;;
18146;SDS011;9199;48.832;9.182;2023-07-20T01:15:38;4.43;;;1.80;;
18146;SDS011;9199;48.832;9.182;2023-07-20T01:18:04;3.97;;;1.60;;
18146;SDS011;9199;48.832;9.182;2023-07-20T01:20:32;4.57;;;1.88;;
18146;SDS011;9199;48.832;9.182;2023-07-20T01:25:58;4.95;;;1.67;;
18146;SDS011;9199;48.832;9.182;2023-07-20T01:31:48;6.73;;;1.70;;
18146;SDS011;9199;48.832;9.182;2023-07-20T01:34:19;3.90;;;1.80;;
18146;SDS011;9199;48.832;9.182;2023-07-20T01:36:47;4.65;;;1.70;;
18146;SDS011;9199;48.832;9.182;2023-07-20T01:39:16;4.05;;;1.85;;
18146;SDS011;9199;48.832;9.182;2023-07-20T01:41:43;6.53;;;1.80;;
18146;SDS011;9199;48.832;9.182;2023-07-20T01:44:12;4.27;;;1.70;;
18146;SDS011;9199;48.832;9.182;2023-07-20T01:46:39;5.65;;;1.98;;
18146;SDS011;9199;48.832;9.182;2023-07-20T01:49:07;4.97;;;1.67;;
18146;SDS011;9199;48.832;9.182;2023-07-20T01:51:33;4.28;;;1.63;;
18146;SDS011;9199;48.832;9.182;2023-07-20T01:54:01;4.95;;;1.50;;
18146;SDS011;9199;48.832;9.182;2023-07-20T01:56:28;4.53;;;1.90;;
18146;SDS011;9199;48.832;9.182;2023-07-20T01:58:55;4.65;;;1.50;;
18146;SDS011;9199;48.832;9.182;2023-07-20T02:01:22;3.65;;;1.60;;
18146;SDS011;9199;48.832;9.182;2023-07-20T02:03:48;4.10;;;1.70;;
18146;SDS011;9199;48.832;9.182;2023-07-20T02:06:16;5.20;;;1.70;;
18146;SDS011;9199;48.832;9.182;2023-07-20T02:08:43;5.33;;;1.63;;
18146;SDS011;9199;48.832;9.182;2023-07-20T02:11:10;5.13;;;2.10;;
18146;SDS011;9199;48.832;9.182;2023-07-20T02:13:36;5.82;;;1.80;;
18146;SDS011;9199;48.832;9.182;2023-07-20T02:16:03;5.43;;;1.77;;
18146;SDS011;9199;48.832;9.182;2023-07-20T02:18:30;4.15;;;1.60;;
18146;SDS011;9199;48.832;9.182;2023-07-20T02:20:58;5.50;;;1.80;;
18146;SDS011;9199;48.832;9.182;2023-07-20T02:23:26;5.03;;;1.77;;
18146;SDS011;9199;48.832;9.182;2023-07-20T02:25:53;5.65;;;1.80;;
18146;SDS011;9199;48.832;9.182;2023-07-20T02:28:19;6.88;;;1.80;;
18146;SDS011;9199;48.832;9.182;2023-07-20T02:30:46;4.03;;;1.70;;
18146;SDS011;9199;48.832;9.182;2023-07-20T02:33:15;4.93;;;1.77;;
18146;SDS011;9199;48.832;9.182;2023-07-20T02:35:41;8.02;;;2.08;;
18146;SDS011;9199;48.832;9.182;2023-07-20T02:38:08;4.47;;;1.77;;
18146;SDS011;9199;48.832;9.182;2023-07-20T02:40:36;5.13;;;2.03;;
18146;SDS011;9199;48.832;9.182;2023-07-20T02:43:03;4.45;;;1.92;;
18146;SDS011;9199;48.832;9.182;2023-07-20T02:45:29;5.37;;;2.00;;
18146;SDS011;9199;48.832;9.182;2023-07-20T02:47:56;5.65;;;1.95;;
18146;SDS011;9199;48.832;9.182;2023-07-20T02:50:23;7.90;;;1.73;;
18146;SDS011;9199;48.832;9.182;2023-07-20T02:52:50;4.28;;;2.17;;
18146;SDS011;9199;48.832;9.182;2023-07-20T02:55:16;3.80;;;1.80;;
18146;SDS011;9199;48.832;9.182;2023-07-20T02:57:45;5.37;;;2.10;;
18146;SDS011;9199;48.832;9.182;2023-07-20T03:00:12;4.72;;;2.00;;
18146;SDS011;9199;48.832;9.182;2023-07-20T03:02:41;3.72;;;2.00;;
18146;SDS011;9199;48.832;9.182;2023-07-20T03:05:08;5.25;;;1.85;;
18146;SDS011;9199;48.832;9.182;2023-07-20T03:07:35;4.30;;;1.80;;
18146;SDS011;9199;48.832;9.182;2023-07-20T03:10:02;4.43;;;2.20;;
18146;SDS011;9199;48.832;9.182;2023-07-20T03:12:31;5.05;;;2.17;;
18146;SDS011;9199;48.832;9.182;2023-07-20T03:15:00;6.18;;;2.22;;
18146;SDS011;9199;48.832;9.182;2023-07-20T03:17:27;7.30;;;2.10;;
18146;SDS011;9199;48.832;9.182;2023-07-20T03:19:54;7.32;;;1.80;;
18146;SDS011;9199;48.832;9.182;2023-07-20T03:22:20;4.60;;;1.93;;
18146;SDS011;9199;48.832;9.182;2023-07-20T03:24:47;5.95;;;2.00;;
18146;SDS011;9199;48.832;9.182;2023-07-20T03:27:14;4.88;;;2.17;;
18146;SDS011;9199;48.832;9.182;2023-07-20T03:29:41;4.75;;;1.88;;
18146;SDS011;9199;48.832;9.182;2023-07-20T03:32:09;7.18;;;2.00;;
18146;SDS011;9199;48.832;9.182;2023-07-20T03:34:35;4.47;;;2.17;;
18146;SDS011;9199;48.832;9.182;2023-07-20T03:37:02;5.05;;;2.13;;
18146;SDS011;9199;48.832;9.182;2023-07-20T03:39:30;5.53;;;2.00;;
18146;SDS011;9199;48.832;9.182;2023-07-20T03:41:57;5.57;;;2.00;;
18146;SDS011;9199;48.832;9.182;2023-07-20T03:44:24;5.18;;;1.80;;
18146;SDS011;9199;48.832;9.182;2023-07-20T03:46:51;5.33;;;2.40;;
18146;SDS011;9199;48.832;9.182;2023-07-20T03:49:19;6.43;;;1.95;;
18146;SDS011;9199;48.832;9.182;2023-07-20T03:51:45;4.57;;;1.83;;
18146;SDS011;9199;48.832;9.182;2023-07-20T03:54:12;4.68;;;2.10;;
18146;SDS011;9199;48.832;9.182;2023-07-20T03:56:39;4.72;;;1.70;;
18146;SDS011;9199;48.832;9.182;2023-07-20T03:59:05;5.93;;;1.97;;
18146;SDS011;9199;48.832;9.182;2023-07-20T04:01:32;6.55;;;2.70;;
18146;SDS011;9199;48.832;9.182;2023-07-20T04:04:01;4.93;;;2.22;;
18146;SDS011;9199;48.832;9.182;2023-07-20T04:06:32;5.65;;;1.95;;
18146;SDS011;9199;48.832;9.182;2023-07-20T04:08:58;7.53;;;2.20;;
18146;SDS011;9199;48.832;9.182;2023-07-20T04:11:25;4.67;;;2.17;;
18146;SDS011;9199;48.832;9.182;2023-07-20T04:13:52;5.55;;;2.05;;
18146;SDS011;9199;48.832;9.182;2023-07-20T04:16:19;5.55;;;2.10;;
18146;SDS011;9199;48.832;9.182;2023-07-20T04:18:46;4.07;;;1.92;;
18146;SDS011;9199;48.832;9.182;2023-07-20T04:21:13;5.57;;;2.33;;
18146;SDS011;9199;48.832;9.182;2023-07-20T04:23:41;6.40;;;2.00;;
18146;SDS011;9199;48.832;9.182;2023-07-20T04:26:08;6.15;;;2.35;;
18146;SDS011;9199;48.832;9.182;2023-07-20T04:28:34;4.70;;;2.20;;
18146;SDS011;9199;48.832;9.182;2023-07-20T04:31:10;6.97;;;2.08;;
18146;SDS011;9199;48.832;9.182;2023-07-20T04:33:38;6.93;;;2.30;;
18146;SDS011;9199;48.832;9.182;2023-07-20T04:36:05;4.60;;;1.90;;
18146;SDS011;9199;48.832;9.182;2023-07-20T04:38:32;9.10;;;2.63;;
18146;SDS011;9199;48.832;9.182;2023-07-20T04:41:00;6.28;;;2.20;;
18146;SDS011;9199;48.832;9.182;2023-07-20T04:43:27;6.85;;;2.28;;
18146;SDS011;9199;48.832;9.182;2023-07-20T04:45:55;5.75;;;2.10;;
18146;SDS011;9199;48.832;9.182;2023-07-20T04:48:21;6.00;;;2.30;;
18146;SDS011;9199;48.832;9.182;2023-07-20T04:50:48;7.07;;;2.05;;
18146;SDS011;9199;48.832;9.182;2023-07-20T04:53:15;5.72;;;2.00;;
18146;SDS011;9199;48.832;9.182;2023-07-20T04:55:47;5.45;;;2.20;;
18146;SDS011;9199;48.832;9.182;2023-07-20T04:58:18;4.35;;;1.92;;
18146;SDS011;9199;48.832;9.182;2023-07-20T05:00:45;6.90;;;2.03;;
18146;SDS011;9199;48.832;9.182;2023-07-20T05:03:11;4.88;;;1.70;;
18146;SDS011;9199;48.832;9.182;2023-07-20T05:05:38;4.78;;;1.90;;
18146;SDS011;9199;48.832;9.182;2023-07-20T05:08:05;7.78;;;2.15;;
18146;SDS011;9199;48.832;9.182;2023-07-20T05:10:31;7.70;;;2.00;;
18146;SDS011;9199;48.832;9.182;2023-07-20T05:12:58;7.70;;;2.20;;
18146;SDS011;9199;48.832;9.182;2023-07-20T05:15:27;6.20;;;2.15;;
18146;SDS011;9199;48.832;9.182;2023-07-20T05:17:53;5.72;;;2.20;;
18146;SDS011;9199;48.832;9.182;2023-07-20T05:20:20;5.22;;;1.70;;
18146;SDS011;9199;48.832;9.182;2023-07-20T05:22:47;7.65;;;2.10;;
18146;SDS011;9199;48.832;9.182;2023-07-20T05:25:14;6.73;;;1.97;;
18146;SDS011;9199;48.832;9.182;2023-07-20T05:27:43;5.82;;;2.00;;
18146;SDS011;9199;48.832;9.182;2023-07-20T05:30:11;5.97;;;1.70;;
18146;SDS011;9199;48.832;9.182;2023-07-20T05:32:39;5.82;;;2.05;;
18146;SDS011;9199;48.832;9.182;2023-07-20T05:35:06;5.95;;;1.90;;
18146;SDS011;9199;48.832;9.182;2023-07-20T05:37:36;5.80;;;2.10;;
18146;SDS011;9199;48.832;9.182;2023-07-20T05:40:03;6.28;;;1.80;;
18146;SDS011;9199;48.832;9.182;2023-07-20T05:42:31;7.10;;;2.10;;
18146;SDS011;9199;48.832;9.182;2023-07-20T05:44:57;5.40;;;1.90;;
18146;SDS011;9199;48.832;9.182;2023-07-20T05:47:24;6.50;;;2.00;;
18146;SDS011;9199;48.832;9.182;2023-07-20T05:49:52;5.30;;;2.20;;
18146;SDS011;9199;48.832;9.182;2023-07-20T05:52:19;6.10;;;1.83;;
18146;SDS011;9199;48.832;9.182;2023-07-20T05:54:45;4.68;;;1.73;;
18146;SDS011;9199;48.832;9.182;2023-07-20T05:57:12;4.72;;;1.80;;
18146;SDS011;9199;48.832;9.182;2023-07-20T05:59:39;4.40;;;1.67;;
18146;SDS011;9199;48.832;9.182;2023-07-20T06:02:09;5.20;;;1.80;;
18146;SDS011;9199;48.832;9.182;2023-07-20T06:04:35;5.03;;;1.90;;
18146;SDS011;9199;48.832;9.182;2023-07-20T06:07:03;6.10;;;1.80;;
18146;SDS011;9199;48.832;9.182;2023-07-20T06:09:32;4.53;;;1.88;;
18146;SDS011;9199;48.832;9.182;2023-07-20T06:11:59;9.63;;;2.00;;
18146;SDS011;9199;48.832;9.182;2023-07-20T06:14:26;4.73;;;1.87;;
18146;SDS011;9199;48.832;9.182;2023-07-20T06:16:52;5.50;;;1.80;;
18146;SDS011;9199;48.832;9.182;2023-07-20T06:19:19;3.20;;;1.40;;
18146;SDS011;9199;48.832;9.182;2023-07-20T06:21:47;4.50;;;1.52;;
18146;SDS011;9199;48.832;9.182;2023-07-20T06:24:15;6.32;;;1.85;;
18146;SDS011;9199;48.832;9.182;2023-07-20T06:26:42;5.23;;;2.10;;
18146;SDS011;9199;48.832;9.182;2023-07-20T06:29:09;5.00;;;1.98;;
18146;SDS011;9199;48.832;9.182;2023-07-20T06:31:36;4.95;;;1.65;;
18146;SDS011;9199;48.832;9.182;2023-07-20T06:34:03;4.78;;;1.60;;
18146;SDS011;9199;48.832;9.182;2023-07-20T06:36:30;5.78;;;1.90;;
18146;SDS011;9199;48.832;9.182;2023-07-20T06:38:57;7.60;;;2.00;;
18146;SDS011;9199;48.832;9.182;2023-07-20T06:41:25;5.95;;;2.00;;
18146;SDS011;9199;48.832;9.182;2023-07-20T06:43:51;6.68;;;2.08;;
18146;SDS011;9199;48.832;9.182;2023-07-20T06:46:23;5.30;;;1.58;;
18146;SDS011;9199;48.832;9.182;2023-07-20T06:48:50;4.93;;;1.70;;
18146;SDS011;9199;48.832;9.182;2023-07-20T06:51:16;4.80;;;1.90;;
18146;SDS011;9199;48.832;9.182;2023-07-20T06:53:43;6.32;;;1.88;;
18146;SDS011;9199;48.832;9.182;2023-07-20T06:56:11;5.00;;;1.70;;
18146;SDS011;9199;48.832;9.182;2023-07-20T06:58:39;7.68;;;2.08;;
18146;SDS011;9199;48.832;9.182;2023-07-20T07:01:05;7.53;;;1.90;;
18146;SDS011;9199;48.832;9.182;2023-07-20T07:03:34;10.30;;;2.03;;
18146;SDS011;9199;48.832;9.182;2023-07-20T07:06:01;5.78;;;2.10;;
18146;SDS011;9199;48.832;9.182;2023-07-20T07:08:28;7.90;;;2.15;;
18146;SDS011;9199;48.832;9.182;2023-07-20T07:10:55;5.72;;;2.08;;
18146;SDS011;9199;48.832;9.182;2023-07-20T07:13:22;6.05;;;1.70;;
18146;SDS011;9199;48.832;9.182;2023-07-20T07:15:51;8.10;;;2.17;;
18146;SDS011;9199;48.832;9.182;2023-07-20T07:18:17;4.53;;;1.50;;
18146;SDS011;9199;48.832;9.182;2023-07-20T07:20:50;5.85;;;2.00;;
18146;SDS011;9199;48.832;9.182;2023-07-20T07:23:17;4.28;;;1.70;;
18146;SDS011;9199;48.832;9.182;2023-07-20T07:25:44;6.05;;;1.77;;
18146;SDS011;9199;48.832;9.182;2023-07-20T07:28:11;4.50;;;1.73;;
18146;SDS011;9199;48.832;9.182;2023-07-20T07:30:38;4.80;;;1.80;;
18146;SDS011;9199;48.832;9.182;2023-07-20T07:33:06;4.45;;;1.88;;
18146;SDS011;9199;48.832;9.182;2023-07-20T07:35:32;3.83;;;1.70;;
18146;SDS011;9199;48.832;9.182;2023-07-20T07:37:59;4.63;;;1.60;;
18146;SDS011;9199;48.832;9.182;2023-07-20T07:40:26;4.17;;;1.60;;
18146;SDS011;9199;48.832;9.182;2023-07-20T07:42:52;7.20;;;2.00;;
18146;SDS011;9199;48.832;9.182;2023-07-20T07:45:19;6.05;;;1.60;;
18146;SDS011;9199;48.832;9.182;2023-07-20T07:47:46;6.28;;;2.05;;
18146;SDS011;9199;48.832;9.182;2023-07-20T07:50:14;5.20;;;1.90;;
18146;SDS011;9199;48.832;9.182;2023-07-20T07:52:40;6.13;;;1.70;;
18146;SDS011;9199;48.832;9.182;2023-07-20T07:55:07;5.00;;;1.80;;
18146;SDS011;9199;48.832;9.182;2023-07-20T07:57:34;5.40;;;1.77;;
18146;SDS011;9199;48.832;9.182;2023-07-20T08:00:00;5.07;;;1.75;;
18146;SDS011;9199;48.832;9.182;2023-07-20T08:02:28;4.32;;;1.70;;
18146;SDS011;9199;48.832;9.182;2023-07-20T08:04:55;4.10;;;1.70;;
18146;SDS011;9199;48.832;9.182;2023-07-20T08:07:23;4.55;;;1.70;;
18146;SDS011;9199;48.832;9.182;2023-07-20T08:09:50;5.38;;;1.70;;
18146;SDS011;9199;48.832;9.182;2023-07-20T08:12:16;5.65;;;1.92;;
18146;SDS011;9199;48.832;9.182;2023-07-20T08:14:45;6.28;;;2.15;;
18146;SDS011;9199;48.832;9.182;2023-07-20T08:17:11;5.13;;;1.93;;
18146;SDS011;9199;48.832;9.182;2023-07-20T08:19:38;8.20;;;2.13;;
18146;SDS011;9199;48.832;9.182;2023-07-20T08:22:06;5.65;;;1.90;;
18146;SDS011;9199;48.832;9.182;2023-07-20T08:24:35;4.25;;;1.88;;
18146;SDS011;9199;48.832;9.182;2023-07-20T08:27:05;5.63;;;2.00;;
18146;SDS011;9199;48.832;9.182;2023-07-20T08:29:32;6.20;;;1.70;;
18146;SDS011;9199;48.832;9.182;2023-07-20T08:31:58;3.33;;;1.45;;
18146;SDS011;9199;48.832;9.182;2023-07-20T08:34:25;6.18;;;1.90;;
18146;SDS011;9199;48.832;9.182;2023-07-20T08:36:52;6.07;;;1.70;;
18146;SDS011;9199;48.832;9.182;2023-07-20T08:39:18;5.65;;;1.90;;
18146;SDS011;9199;48.832;9.182;2023-07-20T08:41:48;3.67;;;1.60;;
18146;SDS011;9199;48.832;9.182;2023-07-20T08:44:15;5.80;;;1.90;;
18146;SDS011;9199;48.832;9.182;2023-07-20T08:46:42;6.05;;;1.73;;
18146;SDS011;9199;48.832;9.182;2023-07-20T08:49:09;6.65;;;1.60;;
18146;SDS011;9199;48.832;9.182;2023-07-20T08:51:37;6.07;;;1.77;;
18146;SDS011;9199;48.832;9.182;2023-07-20T08:54:06;5.17;;;1.70;;
18146;SDS011;9199;48.832;9.182;2023-07-20T08:56:35;4.38;;;1.70;;
18146;SDS011;9199;48.832;9.182;2023-07-20T08:59:05;3.63;;;1.38;;
18146;SDS011;9199;48.832;9.182;2023-07-20T09:01:33;4.13;;;1.60;;
18146;SDS011;9199;48.832;9.182;2023-07-20T09:04:02;5.88;;;1.90;;
18146;SDS011;9199;48.832;9.182;2023-07-20T09:06:29;3.97;;;1.47;;
18146;SDS011;9199;48.832;9.182;2023-07-20T09:08:56;4.03;;;1.55;;
18146;SDS011;9199;48.832;9.182;2023-07-20T09:11:22;4.63;;;1.60;;
18146;SDS011;9199;48.832;9.182;2023-07-20T09:14:01;4.93;;;1.73;;
18146;SDS011;9199;48.832;9.182;2023-07-20T09:16:30;5.68;;;1.70;;
18146;SDS011;9199;48.832;9.182;2023-07-20T09:18:57;6.17;;;1.73;;
18146;SDS011;9199;48.832;9.182;2023-07-20T09:21:27;5.28;;;1.83;;
18146;SDS011;9199;48.832;9.182;2023-07-20T09:23:56;4.00;;;1.70;;
18146;SDS011;9199;48.832;9.182;2023-07-20T09:26:23;5.75;;;1.95;;
18146;SDS011;9199;48.832;9.182;2023-07-20T09:28:51;5.50;;;1.92;;
18146;SDS011;9199;48.832;9.182;2023-07-20T09:31:20;6.03;;;1.87;;
18146;SDS011;9199;48.832;9.182;2023-07-20T09:33:49;5.63;;;1.73;;
18146;SDS011;9199;48.832;9.182;2023-07-20T09:36:18;5.80;;;1.70;;
18146;SDS011;9199;48.832;9.182;2023-07-20T09:38:45;5.63;;;1.88;;
18146;SDS011;9199;48.832;9.182;2023-07-20T09:41:12;7.25;;;1.90;;
18146;SDS011;9199;48.832;9.182;2023-07-20T09:43:40;5.70;;;1.70;;
18146;SDS011;9199;48.832;9.182;2023-07-20T09:46:07;4.10;;;1.70;;
18146;SDS011;9199;48.832;9.182;2023-07-20T09:48:34;4.05;;;1.73;;
18146;SDS011;9199;48.832;9.182;2023-07-20T09:51:02;4.68;;;1.65;;
18146;SDS011;9199;48.832;9.182;2023-07-20T09:53:31;6.35;;;1.40;;
18146;SDS011;9199;48.832;9.182;2023-07-20T09:55:59;4.10;;;1.23;;
18146;SDS011;9199;48.832;9.182;2023-07-20T09:58:26;3.05;;;1.33;;
18146;SDS011;9199;48.832;9.182;2023-07-20T10:00:54;4.25;;;1.30;;
18146;SDS011;9199;48.832;9.182;2023-07-20T10:03:25;3.33;;;1.42;;
18146;SDS011;9199;48.832;9.182;2023-07-20T10:05:56;3.55;;;1.10;;
18146;SDS011;9199;48.832;9.182;2023-07-20T10:08:26;3.73;;;1.20;;
18146;SDS011;9199;48.832;9.182;2023-07-20T10:10:56;4.60;;;1.30;;
18146;SDS011;9199;48.832;9.182;2023-07-20T10:13:26;3.33;;;1.27;;
18146;SDS011;9199;48.832;9.182;2023-07-20T10:15:54;3.42;;;1.30;;
18146;SDS011;9199;48.832;9.182;2023-07-20T10:18:25;2.40;;;1.20;;
18146;SDS011;9199;48.832;9.182;2023-07-20T10:20:55;4.20;;;1.30;;
18146;SDS011;9199;48.832;9.182;2023-07-20T10:23:26;5.45;;;1.25;;
18146;SDS011;9199;48.832;9.182;2023-07-20T10:25:55;3.95;;;1.13;;
18146;SDS011;9199;48.832;9.182;2023-07-20T10:28:23;4.13;;;1.38;;
18146;SDS011;9199;48.832;9.182;2023-07-20T10:30:50;3.15;;;1.10;;
18146;SDS011;9199;48.832;9.182;2023-07-20T10:33:17;4.90;;;1.30;;
18146;SDS011;9199;48.832;9.182;2023-07-20T10:35:51;3.90;;;1.35;;
18146;SDS011;9199;48.832;9.182;2023-07-20T10:38:18;3.33;;;1.40;;
18146;SDS011;9199;48.832;9.182;2023-07-20T10:40:54;3.90;;;1.40;;
18146;SDS011;9199;48.832;9.182;2023-07-20T10:43:21;2.97;;;1.23;;
18146;SDS011;9199;48.832;9.182;2023-07-20T10:45:49;4.03;;;1.20;;
18146;SDS011;9199;48.832;9.182;2023-07-20T10:48:17;2.85;;;1.20;;
18146;SDS011;9199;48.832;9.182;2023-07-20T10:50:45;3.45;;;1.30;;
18146;SDS011;9199;48.832;9.182;2023-07-20T10:53:13;3.08;;;1.30;;
18146;SDS011;9199;48.832;9.182;2023-07-20T10:55:41;3.25;;;1.20;;
18146;SDS011;9199;48.832;9.182;2023-07-20T10:58:11;3.50;;;1.30;;
18146;SDS011;9199;48.832;9.182;2023-07-20T11:00:54;3.25;;;1.20;;
18146;SDS011;9199;48.832;9.182;2023-07-20T11:03:26;3.28;;;1.40;;
18146;SDS011;9199;48.832;9.182;2023-07-20T11:05:54;3.95;;;1.40;;
18146;SDS011;9199;48.832;9.182;2023-07-20T11:08:38;2.78;;;1.33;;
18146;SDS011;9199;48.832;9.182;2023-07-20T11:13:57;3.95;;;1.35;;
18146;SDS011;9199;48.832;9.182;2023-07-20T11:16:32;3.50;;;1.30;;
18146;SDS011;9199;48.832;9.182;2023-07-20T11:19:00;3.33;;;1.38;;
18146;SDS011;9199;48.832;9.182;2023-07-20T11:21:27;3.42;;;1.20;;
18146;SDS011;9199;48.832;9.182;2023-07-20T11:23:55;3.33;;;1.50;;
18146;SDS011;9199;48.832;9.182;2023-07-20T11:26:21;4.07;;;1.50;;
18146;SDS011;9199;48.832;9.182;2023-07-20T11:28:48;3.47;;;1.63;;
18146;SDS011;9199;48.832;9.182;2023-07-20T11:31:18;3.40;;;1.38;;
18146;SDS011;9199;48.832;9.182;2023-07-20T11:33:45;3.40;;;1.45;;
18146;SDS011;9199;48.832;9.182;2023-07-20T11:36:12;3.90;;;1.30;;
18146;SDS011;9199;48.832;9.182;2023-07-20T11:38:41;3.08;;;1.30;;
18146;SDS011;9199;48.832;9.182;2023-07-20T11:41:09;3.38;;;1.30;;
18146;SDS011;9199;48.832;9.182;2023-07-20T11:43:36;4.05;;;1.40;;
18146;SDS011;9199;48.832;9.182;2023-07-20T11:46:04;4.60;;;1.30;;
18146;SDS011;9199;48.832;9.182;2023-07-20T11:48:32;4.50;;;1.50;;
18146;SDS011;9199;48.832;9.182;2023-07-20T11:50:59;3.75;;;1.50;;
18146;SDS011;9199;48.832;9.182;2023-07-20T11:53:26;4.18;;;1.30;;
18146;SDS011;9199;48.832;9.182;2023-07-20T11:55:53;2.53;;;1.15;;
18146;SDS011;9199;48.832;9.182;2023-07-20T11:58:20;4.32;;;1.40;;
18146;SDS011;9199;48.832;9.182;2023-07-20T12:00:47;3.30;;;1.40;;
18146;SDS011;9199;48.832;9.182;2023-07-20T12:03:14;4.22;;;1.38;;
18146;SDS011;9199;48.832;9.182;2023-07-20T12:05:42;3.28;;;1.40;;
18146;SDS011;9199;48.832;9.182;2023-07-20T12:08:09;3.58;;;1.55;;
18146;SDS011;9199;48.832;9.182;2023-07-20T12:10:38;4.55;;;1.60;;
18146;SDS011;9199;48.832;9.182;2023-07-20T12:13:09;3.20;;;1.40;;
18146;SDS011;9199;48.832;9.182;2023-07-20T12:15:37;2.72;;;1.30;;
18146;SDS011;9199;48.832;9.182;2023-07-20T12:18:04;6.97;;;2.17;;
18146;SDS011;9199;48.832;9.182;2023-07-20T12:20:31;3.70;;;1.27;;
18146;SDS011;9199;48.832;9.182;2023-07-20T12:23:01;5.70;;;1.40;;
18146;SDS011;9199;48.832;9.182;2023-07-20T12:25:39;4.77;;;1.30;;
18146;SDS011;9199;48.832;9.182;2023-07-20T12:28:07;3.08;;;1.50;;
18146;SDS011;9199;48.832;9.182;2023-07-20T12:30:35;3.42;;;1.45;;
18146;SDS011;9199;48.832;9.182;2023-07-20T12:33:03;3.22;;;1.27;;
18146;SDS011;9199;48.832;9.182;2023-07-20T12:35:30;4.60;;;1.30;;
18146;SDS011;9199;48.832;9.182;2023-07-20T12:37:57;4.03;;;1.30;;
18146;SDS011;9199;48.832;9.182;2023-07-20T12:40:25;3.67;;;1.40;;
18146;SDS011;9199;48.832;9.182;2023-07-20T12:42:52;3.53;;;1.42;;
18146;SDS011;9199;48.832;9.182;2023-07-20T12:45:19;3.65;;;1.50;;
18146;SDS011;9199;48.832;9.182;2023-07-20T12:47:46;3.13;;;1.30;;
18146;SDS011;9199;48.832;9.182;2023-07-20T12:50:13;3.60;;;1.50;;
18146;SDS011;9199;48.832;9.182;2023-07-20T12:52:39;4.28;;;1.40;;
18146;SDS011;9199;48.832;9.182;2023-07-20T12:55:07;4.10;;;1.35;;
18146;SDS011;9199;48.832;9.182;2023-07-20T12:57:37;3.85;;;1.45;;
18146;SDS011;9199;48.832;9.182;2023-07-20T13:00:05;3.13;;;1.52;;
18146;SDS011;9199;48.832;9.182;2023-07-20T13:02:33;4.47;;;1.50;;
18146;SDS011;9199;48.832;9.182;2023-07-20T13:05:00;3.80;;;1.63;;
18146;SDS011;9199;48.832;9.182;2023-07-20T13:07:31;3.05;;;1.40;;
18146;SDS011;9199;48.832;9.182;2023-07-20T13:10:00;2.75;;;1.50;;
18146;SDS011;9199;48.832;9.182;2023-07-20T13:12:28;5.07;;;1.50;;
18146;SDS011;9199;48.832;9.182;2023-07-20T13:14:57;3.37;;;1.40;;
18146;SDS011;9199;48.832;9.182;2023-07-20T13:17:25;3.80;;;1.45;;
18146;SDS011;9199;48.832;9.182;2023-07-20T13:19:52;3.17;;;1.50;;
18146;SDS011;9199;48.832;9.182;2023-07-20T13:22:19;2.80;;;1.60;;
18146;SDS011;9199;48.832;9.182;2023-07-20T13:24:46;3.90;;;1.60;;
18146;SDS011;9199;48.832;9.182;2023-07-20T13:27:14;4.70;;;1.60;;
18146;SDS011;9199;48.832;9.182;2023-07-20T13:29:41;4.72;;;1.77;;
18146;SDS011;9199;48.832;9.182;2023-07-20T13:32:09;3.15;;;1.52;;
18146;SDS011;9199;48.832;9.182;2023-07-20T13:34:36;5.45;;;1.80;;
18146;SDS011;9199;48.832;9.182;2023-07-20T13:37:03;4.85;;;1.65;;
18146;SDS011;9199;48.832;9.182;2023-07-20T13:39:30;4.77;;;1.30;;
18146;SDS011;9199;48.832;9.182;2023-07-20T13:41:57;3.00;;;1.40;;
18146;SDS011;9199;48.832;9.182;2023-07-20T13:44:26;3.33;;;1.50;;
18146;SDS011;9199;48.832;9.182;2023-07-20T13:46:53;4.40;;;1.45;;
18146;SDS011;9199;48.832;9.182;2023-07-20T13:49:21;4.13;;;1.40;;
18146;SDS011;9199;48.832;9.182;2023-07-20T13:51:49;5.93;;;1.33;;
18146;SDS011;9199;48.832;9.182;2023-07-20T13:54:15;3.05;;;1.40;;
18146;SDS011;9199;48.832;9.182;2023-07-20T13:56:42;9.43;;;1.63;;
18146;SDS011;9199;48.832;9.182;2023-07-20T13:59:09;3.08;;;1.40;;
18146;SDS011;9199;48.832;9.182;2023-07-20T14:01:36;4.20;;;1.38;;
18146;SDS011;9199;48.832;9.182;2023-07-20T14:04:02;3.80;;;1.73;;
18146;SDS011;9199;48.832;9.182;2023-07-20T14:06:31;4.47;;;1.52;;
18146;SDS011;9199;48.832;9.182;2023-07-20T14:08:58;4.30;;;1.40;;
18146;SDS011;9199;48.832;9.182;2023-07-20T14:11:26;3.83;;;1.35;;
18146;SDS011;9199;48.832;9.182;2023-07-20T14:13:53;3.92;;;1.42;;
18146;SDS011;9199;48.832;9.182;2023-07-20T14:16:20;5.00;;;1.40;;
18146;SDS011;9199;48.832;9.182;2023-07-20T14:18:47;3.65;;;1.33;;
18146;SDS011;9199;48.832;9.182;2023-07-20T14:21:14;5.60;;;1.70;;
18146;SDS011;9199;48.832;9.182;2023-07-20T14:23:42;2.95;;;1.40;;
18146;SDS011;9199;48.832;9.182;2023-07-20T14:26:10;2.58;;;1.30;;
18146;SDS011;9199;48.832;9.182;2023-07-20T14:28:37;3.80;;;1.43;;
18146;SDS011;9199;48.832;9.182;2023-07-20T14:31:04;4.40;;;1.50;;
18146;SDS011;9199;48.832;9.182;2023-07-20T14:33:31;4.72;;;1.50;;
18146;SDS011;9199;48.832;9.182;2023-07-20T14:35:58;4.68;;;1.40;;
18146;SDS011;9199;48.832;9.182;2023-07-20T14:38:26;3.40;;;1.65;;
18146;SDS011;9199;48.832;9.182;2023-07-20T14:40:54;4.13;;;1.60;;
18146;SDS011;9199;48.832;9.182;2023-07-20T14:43:21;5.32;;;1.70;;
18146;SDS011;9199;48.832;9.182;2023-07-20T14:45:48;2.72;;;1.48;;
18146;SDS011;9199;48.832;9.182;2023-07-20T14:48:14;4.43;;;1.60;;
18146;SDS011;9199;48.832;9.182;2023-07-20T14:50:41;2.88;;;1.35;;
18146;SDS011;9199;48.832;9.182;2023-07-20T14:53:10;2.90;;;1.50;;
18146;SDS011;9199;48.832;9.182;2023-07-20T14:55:37;4.03;;;1.50;;
18146;SDS011;9199;48.832;9.182;2023-07-20T14:58:05;2.90;;;1.30;;
18146;SDS011;9199;48.832;9.182;2023-07-20T15:00:32;3.13;;;1.30;;
18146;SDS011;9199;48.832;9.182;2023-07-20T15:02:58;3.70;;;1.20;;
18146;SDS011;9199;48.832;9.182;2023-07-20T15:05:25;3.23;;;1.40;;
18146;SDS011;9199;48.832;9.182;2023-07-20T15:07:52;3.20;;;1.50;;
18146;SDS011;9199;48.832;9.182;2023-07-20T15:10:19;3.92;;;1.30;;
18146;SDS011;9199;48.832;9.182;2023-07-20T15:12:47;2.85;;;1.40;;